createdAt,value
2019-04-07T00:01:48.773Z,12.28
2019-04-07T00:04:17.967Z,12.30
2019-04-07T00:06:47.670Z,12.26
2019-04-07T00:09:17.652Z,12.07
2019-04-07T00:11:47.230Z,12.01
2019-04-07T00:14:16.779Z,11.79
2019-04-07T00:16:45.992Z,11.68
2019-04-07T00:19:15.795Z,11.57
2019-04-07T00:21:45.655Z,11.54
2019-04-07T00:24:15.000Z,11.41
2019-04-07T00:26:44.823Z,11.37
2019-04-07T00:29:14.477Z,11.30
2019-04-07T00:31:43.956Z,11.21
2019-04-07T00:34:15.423Z,11.23
2019-04-07T00:36:45.909Z,11.11
2019-04-07T00:39:15.452Z,11.12
2019-04-07T00:41:44.578Z,11.16
2019-04-07T00:44:14.669Z,11.13
2019-04-07T00:46:44.461Z,11.01
2019-04-07T00:49:13.927Z,10.98
2019-04-07T00:51:43.389Z,11.00
2019-04-07T00:54:12.877Z,11.07
2019-04-07T00:56:43.841Z,11.00
2019-04-07T00:59:13.446Z,10.97
2019-04-07T01:01:43.029Z,10.97
2019-04-07T01:04:12.311Z,10.95
2019-04-07T01:06:42.205Z,10.86
2019-04-07T01:09:13.434Z,10.91
2019-04-07T01:11:43.090Z,10.86
2019-04-07T01:14:12.496Z,10.86
2019-04-07T01:16:42.055Z,10.97
2019-04-07T01:19:11.584Z,10.91
2019-04-07T01:21:41.056Z,10.92
2019-04-07T01:24:10.520Z,10.94
2019-04-07T01:26:40.505Z,10.99
2019-04-07T01:29:10.214Z,10.87
2019-04-07T01:31:40.424Z,10.91
2019-04-07T01:34:09.726Z,10.84
2019-04-07T01:36:39.328Z,10.81
2019-04-07T01:39:10.596Z,10.75
2019-04-07T01:41:43.471Z,11.01
2019-04-07T01:44:14.616Z,11.19
2019-04-07T01:46:45.917Z,11.29
2019-04-07T01:49:17.063Z,11.27
2019-04-07T01:51:48.799Z,11.27
2019-04-07T01:54:18.046Z,11.13
2019-04-07T01:56:49.379Z,11.05
2019-04-07T01:59:20.914Z,10.97
2019-04-07T02:01:54.064Z,10.93
2019-04-07T02:04:25.244Z,10.90
2019-04-07T02:06:56.471Z,10.84
2019-04-07T02:09:27.944Z,10.71
2019-04-07T02:12:00.572Z,10.69
2019-04-07T02:14:31.473Z,10.65
2019-04-07T02:17:04.293Z,10.63
2019-04-07T02:19:35.933Z,10.61
2019-04-07T02:22:07.809Z,10.54
2019-04-07T02:24:39.925Z,10.52
2019-04-07T02:27:11.129Z,10.48
2019-04-07T02:29:45.052Z,10.53
2019-04-07T02:32:17.417Z,10.58
2019-04-07T02:34:49.059Z,10.59
2019-04-07T02:37:19.238Z,10.69
2019-04-07T02:39:53.338Z,10.58
2019-04-07T02:42:25.068Z,10.57
2019-04-07T02:44:56.101Z,10.57
2019-04-07T02:47:31.432Z,10.52
2019-04-07T02:50:03.388Z,10.47
2019-04-07T02:52:35.621Z,10.40
2019-04-07T02:55:11.142Z,10.40
2019-04-07T02:57:42.172Z,10.36
2019-04-07T03:00:13.966Z,10.34
2019-04-07T03:02:45.974Z,10.39
2019-04-07T03:05:17.466Z,10.36
2019-04-07T03:07:48.846Z,10.27
2019-04-07T03:10:22.811Z,10.27
2019-04-07T03:12:54.700Z,10.27
2019-04-07T03:15:26.916Z,10.21
2019-04-07T03:17:58.292Z,10.09
2019-04-07T03:20:29.631Z,10.23
2019-04-07T03:23:00.538Z,10.30
2019-04-07T03:25:32.457Z,10.33
2019-04-07T03:28:04.703Z,10.32
2019-04-07T03:30:39.686Z,10.32
2019-04-07T03:33:11.194Z,10.40
2019-04-07T03:35:42.295Z,10.47
2019-04-07T03:38:12.682Z,10.37
2019-04-07T03:40:44.182Z,10.43
2019-04-07T03:43:15.569Z,10.40
2019-04-07T03:45:50.627Z,10.37
2019-04-07T03:48:21.868Z,10.46
2019-04-07T03:50:53.113Z,10.42
2019-04-07T03:53:24.433Z,10.44
2019-04-07T03:55:55.855Z,10.43
2019-04-07T03:58:25.908Z,10.40
2019-04-07T04:00:58.139Z,10.34
2019-04-07T04:03:30.168Z,10.17
2019-04-07T04:06:04.652Z,9.98
2019-04-07T04:08:35.882Z,10.00
2019-04-07T04:11:07.079Z,10.05
2019-04-07T04:13:38.219Z,9.91
2019-04-07T04:16:08.129Z,9.93
2019-04-07T04:18:37.747Z,9.91
2019-04-07T04:21:07.279Z,9.98
2019-04-07T04:23:38.007Z,10.04
2019-04-07T04:26:08.318Z,9.94
2019-04-07T04:28:39.046Z,9.94
2019-04-07T04:31:08.189Z,9.93
2019-04-07T04:33:37.918Z,9.92
2019-04-07T04:36:08.108Z,9.88
2019-04-07T04:38:38.447Z,9.80
2019-04-07T04:41:08.056Z,9.75
2019-04-07T04:43:38.194Z,9.71
2019-04-07T04:46:09.969Z,9.77
2019-04-07T04:48:39.390Z,9.76
2019-04-07T04:51:09.758Z,9.72
2019-04-07T04:53:39.397Z,9.72
2019-04-07T04:56:09.730Z,9.79
2019-04-07T04:58:38.899Z,9.74
2019-04-07T05:01:08.497Z,9.78
2019-04-07T05:03:38.359Z,9.86
2019-04-07T05:06:07.871Z,9.83
2019-04-07T05:08:37.878Z,9.93
2019-04-07T05:11:07.890Z,9.96
2019-04-07T05:13:37.537Z,9.93
2019-04-07T05:16:07.194Z,9.91
2019-04-07T05:18:37.146Z,9.85
2019-04-07T05:21:06.939Z,9.98
2019-04-07T05:23:36.505Z,10.15
2019-04-07T05:26:06.899Z,10.58
2019-04-07T05:28:37.049Z,11.16
2019-04-07T05:31:07.448Z,11.55
2019-04-07T05:33:36.932Z,11.84
2019-04-07T05:36:06.944Z,12.13
2019-04-07T05:38:36.682Z,12.80
2019-04-07T05:41:06.518Z,13.07
2019-04-07T05:43:35.974Z,13.41
2019-04-07T05:46:07.333Z,13.26
2019-04-07T05:48:37.098Z,13.31
2019-04-07T05:51:07.234Z,13.36
2019-04-07T05:53:36.821Z,13.82
2019-04-07T05:56:06.346Z,13.47
2019-04-07T05:58:38.670Z,13.87
2019-04-07T06:01:07.503Z,14.16
2019-04-07T06:03:41.211Z,14.68
2019-04-07T06:06:08.312Z,15.54
2019-04-07T06:08:39.946Z,16.52
2019-04-07T06:11:09.488Z,17.14
2019-04-07T06:13:39.146Z,17.83
2019-04-07T06:16:08.196Z,18.03
2019-04-07T06:18:37.908Z,18.09
2019-04-07T06:21:07.777Z,17.41
2019-04-07T06:23:37.525Z,18.25
2019-04-07T06:26:11.344Z,18.91
2019-04-07T06:28:39.262Z,18.40
2019-04-07T06:31:09.471Z,19.01
2019-04-07T06:33:39.369Z,19.64
2019-04-07T06:36:09.445Z,18.12
2019-04-07T06:38:43.200Z,19.12
2019-04-07T06:41:11.456Z,19.17
2019-04-07T06:43:41.253Z,18.68
2019-04-07T06:46:10.812Z,17.37
2019-04-07T06:48:45.107Z,18.67
2019-04-07T06:51:17.377Z,18.32
2019-04-07T06:53:49.210Z,18.10
2019-04-07T06:56:21.496Z,16.43
2019-04-07T06:58:55.628Z,17.30
2019-04-07T07:01:27.447Z,17.58
2019-04-07T07:03:58.734Z,17.42
2019-04-07T07:06:29.996Z,17.42
2019-04-07T07:09:01.969Z,18.39
2019-04-07T07:11:34.660Z,17.38
2019-04-07T07:14:06.277Z,18.07
2019-04-07T07:16:41.083Z,18.60
2019-04-07T07:19:10.654Z,16.57
2019-04-07T07:21:42.633Z,16.76
2019-04-07T07:24:14.663Z,17.90
2019-04-07T07:26:44.133Z,18.65
2019-04-07T07:29:15.265Z,19.02
2019-04-07T07:31:44.950Z,17.33
2019-04-07T07:34:15.540Z,19.88
2019-04-07T07:36:46.688Z,16.62
2019-04-07T07:39:17.670Z,17.09
2019-04-07T07:41:50.323Z,16.51
2019-04-07T07:44:18.836Z,17.34
2019-04-07T07:46:50.398Z,18.49
2019-04-07T07:49:19.519Z,18.85
2019-04-07T07:51:49.125Z,17.26
2019-04-07T07:54:18.884Z,19.16
2019-04-07T07:56:51.179Z,20.69
2019-04-07T07:59:20.093Z,20.46
2019-04-07T08:01:51.335Z,19.26
2019-04-07T08:04:20.785Z,18.66
2019-04-07T08:06:50.188Z,17.85
2019-04-07T08:09:23.113Z,19.92
2019-04-07T08:11:51.150Z,20.34
2019-04-07T08:14:20.620Z,18.34
2019-04-07T08:16:50.163Z,19.97
2019-04-07T08:19:21.094Z,18.77
2019-04-07T08:21:51.974Z,16.87
2019-04-07T08:24:21.855Z,16.70
2019-04-07T08:26:54.029Z,17.09
2019-04-07T08:29:22.657Z,17.47
2019-04-07T08:31:55.158Z,16.47
2019-04-07T08:34:23.298Z,16.73
2019-04-07T08:36:53.069Z,17.60
2019-04-07T08:39:35.427Z,17.12
2019-04-07T08:42:18.605Z,16.50
2019-04-07T08:44:47.294Z,15.84
2019-04-07T08:47:21.183Z,17.15
2019-04-07T08:49:48.259Z,16.42
2019-04-07T08:52:21.106Z,16.35
2019-04-07T08:54:52.403Z,16.94
2019-04-07T08:57:21.523Z,17.54
2019-04-07T08:59:51.385Z,18.35
2019-04-07T09:02:22.435Z,17.75
2019-04-07T09:04:52.473Z,17.30
2019-04-07T09:07:24.355Z,16.99
2019-04-07T09:09:52.689Z,17.18
2019-04-07T09:12:21.916Z,17.75
2019-04-07T09:14:51.453Z,17.33
2019-04-07T09:17:30.645Z,17.10
2019-04-07T09:19:57.121Z,16.94
2019-04-07T09:22:30.363Z,16.67
2019-04-07T09:25:06.655Z,16.05
2019-04-07T09:27:35.277Z,15.75
2019-04-07T09:30:10.077Z,16.01
2019-04-07T09:32:42.710Z,15.61
2019-04-07T09:35:14.460Z,15.93
2019-04-07T09:37:45.566Z,15.59
2019-04-07T09:40:17.573Z,15.43
2019-04-07T09:42:49.612Z,15.55
2019-04-07T09:45:20.748Z,16.06
2019-04-07T09:47:52.006Z,16.49
2019-04-07T09:50:26.886Z,16.02
2019-04-07T09:52:58.709Z,16.00
2019-04-07T09:55:30.106Z,16.37
2019-04-07T09:58:01.922Z,16.06
2019-04-07T10:00:33.892Z,15.71
2019-04-07T10:03:08.605Z,15.82
2019-04-07T10:05:40.141Z,15.57
2019-04-07T10:08:16.753Z,15.75
2019-04-07T10:10:47.333Z,16.09
2019-04-07T10:13:18.897Z,16.46
2019-04-07T10:15:52.157Z,16.58
2019-04-07T10:18:24.016Z,16.49
2019-04-07T10:20:55.857Z,16.23
2019-04-07T10:23:27.180Z,16.45
2019-04-07T10:25:58.515Z,16.71
2019-04-07T10:28:29.712Z,16.24
2019-04-07T10:31:01.130Z,16.36
2019-04-07T10:33:35.773Z,15.93
2019-04-07T10:36:07.903Z,15.99
2019-04-07T10:38:39.132Z,16.46
2019-04-07T10:41:10.754Z,16.42
2019-04-07T10:43:42.506Z,16.37
2019-04-07T10:46:14.629Z,16.26
2019-04-07T10:48:46.648Z,16.33
2019-04-07T10:51:18.460Z,16.62
2019-04-07T10:53:51.103Z,16.16
2019-04-07T10:56:22.529Z,16.21
2019-04-07T10:58:56.718Z,16.40
2019-04-07T11:01:26.698Z,16.67
2019-04-07T11:03:58.048Z,16.89
2019-04-07T11:06:29.510Z,16.52
2019-04-07T11:09:00.451Z,16.63
2019-04-07T11:11:36.053Z,16.75
2019-04-07T11:14:07.869Z,17.02
2019-04-07T11:16:42.144Z,17.02
2019-04-07T11:19:13.293Z,17.01
2019-04-07T11:21:44.666Z,17.20
2019-04-07T11:24:16.565Z,16.98
2019-04-07T11:26:48.583Z,16.81
2019-04-07T11:29:18.191Z,16.73
2019-04-07T11:31:53.251Z,17.08
2019-04-07T11:34:24.549Z,17.19
2019-04-07T11:36:56.116Z,17.47
2019-04-07T11:39:27.495Z,17.36
2019-04-07T11:42:01.448Z,17.15
2019-04-07T11:44:33.895Z,17.16
2019-04-07T11:47:06.331Z,17.05
2019-04-07T11:49:37.726Z,17.29
2019-04-07T11:52:09.839Z,17.26
2019-04-07T11:54:43.844Z,17.15
2019-04-07T11:57:15.376Z,17.01
2019-04-07T11:59:49.068Z,17.18
2019-04-07T12:02:23.149Z,17.24
2019-04-07T12:04:54.316Z,17.21
2019-04-07T12:07:25.445Z,17.16
2019-04-07T12:09:56.975Z,17.26
2019-04-07T12:12:28.884Z,16.97
2019-04-07T12:15:00.229Z,17.42
2019-04-07T12:17:33.993Z,17.23
2019-04-07T12:20:06.481Z,17.67
2019-04-07T12:22:37.950Z,17.81
2019-04-07T12:25:10.526Z,17.75
2019-04-07T12:27:44.632Z,17.42
2019-04-07T12:30:15.484Z,17.35
2019-04-07T12:32:47.779Z,17.49
2019-04-07T12:35:19.121Z,17.60
2019-04-07T12:37:58.021Z,17.78
2019-04-07T12:40:29.026Z,18.17
2019-04-07T12:43:00.252Z,18.27
2019-04-07T12:45:31.901Z,18.27
2019-04-07T12:48:01.469Z,18.05
2019-04-07T12:50:32.816Z,18.19
2019-04-07T12:53:04.876Z,17.78
2019-04-07T12:55:36.155Z,17.86
2019-04-07T12:58:11.568Z,18.10
2019-04-07T13:00:55.794Z,18.26
2019-04-07T13:03:15.567Z,18.22
2019-04-07T13:05:46.714Z,18.36
2019-04-07T13:08:22.537Z,18.43
2019-04-07T13:10:51.238Z,18.48
2019-04-07T13:13:24.357Z,17.82
2019-04-07T13:15:55.204Z,18.05
2019-04-07T13:18:26.457Z,18.43
2019-04-07T13:21:01.136Z,18.92
2019-04-07T13:23:32.985Z,18.43
2019-04-07T13:26:04.070Z,18.90
2019-04-07T13:28:35.909Z,18.90
2019-04-07T13:31:07.325Z,19.10
2019-04-07T13:33:41.411Z,18.45
2019-04-07T13:36:12.638Z,18.42
2019-04-07T13:38:44.541Z,19.00
2019-04-07T13:41:18.595Z,19.35
2019-04-07T13:43:49.457Z,18.83
2019-04-07T13:46:27.850Z,19.00
2019-04-07T13:48:58.800Z,19.47
2019-04-07T13:51:26.849Z,19.21
2019-04-07T13:54:02.020Z,18.88
2019-04-07T13:56:33.045Z,18.92
2019-04-07T13:59:08.164Z,19.35
2019-04-07T14:01:37.028Z,19.35
2019-04-07T14:04:08.916Z,19.12
2019-04-07T14:06:43.629Z,18.92
2019-04-07T14:09:13.218Z,19.05
2019-04-07T14:11:57.205Z,19.30
2019-04-07T14:14:17.917Z,19.89
2019-04-07T14:16:52.808Z,19.89
2019-04-07T14:19:24.211Z,20.54
2019-04-07T14:21:55.732Z,20.59
2019-04-07T14:24:25.182Z,20.75
2019-04-07T14:26:56.699Z,20.75
2019-04-07T14:29:28.432Z,20.23
2019-04-07T14:32:00.874Z,19.86
2019-04-07T14:34:32.742Z,19.39
2019-04-07T14:37:05.397Z,19.57
2019-04-07T14:39:39.340Z,19.86
2019-04-07T14:42:10.066Z,19.63
2019-04-07T14:44:41.425Z,20.12
2019-04-07T14:47:12.836Z,20.28
2019-04-07T14:49:51.748Z,20.33
2019-04-07T14:52:21.612Z,19.75
2019-04-07T14:54:56.998Z,19.12
2019-04-07T14:57:26.063Z,18.97
2019-04-07T15:00:00.042Z,19.36
2019-04-07T15:02:30.217Z,19.45
2019-04-07T15:05:01.404Z,19.48
2019-04-07T15:07:32.792Z,18.99
2019-04-07T15:10:04.079Z,18.83
2019-04-07T15:12:35.946Z,19.16
2019-04-07T15:15:11.215Z,18.83
2019-04-07T15:17:39.352Z,18.78
2019-04-07T15:20:11.641Z,19.14
2019-04-07T15:22:39.944Z,19.24
2019-04-07T15:25:10.284Z,19.09
2019-04-07T15:27:40.175Z,18.83
2019-04-07T15:30:13.277Z,18.88
2019-04-07T15:32:41.644Z,18.80
2019-04-07T15:35:12.455Z,18.96
2019-04-07T15:37:42.580Z,18.72
2019-04-07T15:40:12.266Z,18.67
2019-04-07T15:42:44.432Z,18.66
2019-04-07T15:45:13.457Z,18.67
2019-04-07T15:47:42.995Z,18.92
2019-04-07T15:50:13.764Z,19.29
2019-04-07T15:52:45.959Z,19.47
2019-04-07T15:55:14.827Z,19.70
2019-04-07T15:57:44.293Z,20.06
2019-04-07T16:00:15.247Z,19.90
2019-04-07T16:02:44.545Z,19.68
2019-04-07T16:05:14.836Z,19.89
2019-04-07T16:07:44.916Z,19.96
2019-04-07T16:10:14.699Z,19.49
2019-04-07T16:12:50.018Z,19.69
2019-04-07T16:15:17.890Z,19.53
2019-04-07T16:17:47.616Z,19.68
2019-04-07T16:20:23.962Z,19.58
2019-04-07T16:22:51.398Z,19.17
2019-04-07T16:25:22.732Z,19.13
2019-04-07T16:27:51.113Z,19.10
2019-04-07T16:30:20.520Z,19.17
2019-04-07T16:32:49.651Z,18.82
2019-04-07T16:35:19.276Z,18.82
2019-04-07T16:37:48.789Z,18.82
2019-04-07T16:40:18.486Z,18.84
2019-04-07T16:43:01.256Z,18.59
2019-04-07T16:45:19.247Z,18.72
2019-04-07T16:47:48.681Z,18.55
2019-04-07T16:50:20.292Z,18.53
2019-04-07T16:52:49.715Z,18.52
2019-04-07T16:55:23.599Z,18.44
2019-04-07T16:57:53.143Z,18.57
2019-04-07T17:00:22.710Z,18.60
2019-04-07T17:02:52.847Z,18.29
2019-04-07T17:05:24.461Z,18.32
2019-04-07T17:07:56.013Z,18.34
2019-04-07T17:10:29.587Z,18.22
2019-04-07T17:12:58.257Z,18.24
2019-04-07T17:15:28.476Z,18.13
2019-04-07T17:17:58.808Z,18.16
2019-04-07T17:20:33.324Z,18.21
2019-04-07T17:23:00.397Z,18.12
2019-04-07T17:25:32.825Z,18.03
2019-04-07T17:28:03.685Z,17.91
2019-04-07T17:30:32.513Z,17.87
2019-04-07T17:33:03.245Z,17.80
2019-04-07T17:35:32.834Z,17.74
2019-04-07T17:38:06.298Z,17.70
2019-04-07T17:40:36.469Z,17.65
2019-04-07T17:43:08.222Z,17.59
2019-04-07T17:45:39.300Z,17.62
2019-04-07T17:48:13.397Z,17.56
2019-04-07T17:50:44.549Z,17.52
2019-04-07T17:53:17.638Z,17.45
2019-04-07T17:55:48.933Z,17.37
2019-04-07T17:58:23.078Z,17.32
2019-04-07T18:00:54.468Z,17.26
2019-04-07T18:03:25.774Z,17.32
2019-04-07T18:06:00.033Z,17.28
2019-04-07T18:08:29.563Z,17.25
2019-04-07T18:11:01.049Z,17.21
2019-04-07T18:13:43.441Z,17.15
2019-04-07T18:16:06.270Z,17.10
2019-04-07T18:18:37.825Z,17.05
2019-04-07T18:21:11.737Z,17.01
2019-04-07T18:23:42.060Z,16.99
2019-04-07T18:26:15.610Z,16.99
2019-04-07T18:28:46.491Z,16.97
2019-04-07T18:31:17.946Z,16.93
2019-04-07T18:33:52.598Z,16.90
2019-04-07T18:36:25.688Z,16.86
2019-04-07T18:38:56.959Z,16.82
2019-04-07T18:41:30.828Z,16.78
2019-04-07T18:44:08.560Z,16.75
2019-04-07T18:46:42.261Z,16.75
2019-04-07T18:49:13.432Z,16.73
2019-04-07T18:51:49.735Z,16.72
2019-04-07T18:54:21.426Z,16.73
2019-04-07T18:56:54.578Z,16.72
2019-04-07T18:59:25.861Z,16.69
2019-04-07T19:01:59.994Z,16.66
2019-04-07T19:04:31.582Z,16.64
2019-04-07T19:07:02.819Z,16.62
2019-04-07T19:09:34.434Z,16.62
2019-04-07T19:12:10.448Z,16.62
2019-04-07T19:14:44.506Z,16.61
2019-04-07T19:17:10.685Z,16.59
2019-04-07T19:19:42.058Z,16.61
2019-04-07T19:22:15.927Z,16.59
2019-04-07T19:24:46.302Z,16.57
2019-04-07T19:27:21.624Z,16.56
2019-04-07T19:29:53.267Z,16.56
2019-04-07T19:32:25.087Z,16.54
2019-04-07T19:34:57.187Z,16.51
2019-04-07T19:37:28.316Z,16.44
2019-04-07T19:40:03.005Z,16.40
2019-04-07T19:42:38.795Z,16.35
2019-04-07T19:45:09.144Z,16.30
2019-04-07T19:47:44.400Z,16.31
2019-04-07T19:50:16.907Z,16.29
2019-04-07T19:52:48.283Z,16.27
2019-04-07T19:55:22.687Z,16.32
2019-04-07T19:57:52.583Z,16.33
2019-04-07T20:00:26.316Z,16.32
2019-04-07T20:02:57.380Z,16.31
2019-04-07T20:05:28.595Z,16.30
2019-04-07T20:08:02.579Z,16.28
2019-04-07T20:10:32.659Z,16.22
2019-04-07T20:13:05.537Z,16.13
2019-04-07T20:15:41.775Z,16.11
2019-04-07T20:18:12.450Z,16.06
2019-04-07T20:20:44.690Z,16.04
2019-04-07T20:23:17.458Z,16.05
2019-04-07T20:25:49.301Z,16.10
2019-04-07T20:28:20.529Z,16.14
2019-04-07T20:30:52.800Z,16.28
2019-04-07T20:33:23.193Z,16.21
2019-04-07T20:35:54.407Z,16.16
2019-04-07T20:38:27.296Z,16.14
2019-04-07T20:41:01.413Z,16.07
2019-04-07T20:43:33.020Z,16.07
2019-04-07T20:46:04.614Z,16.10
2019-04-07T20:48:37.025Z,16.08
2019-04-07T20:51:08.466Z,16.07
2019-04-07T20:53:40.775Z,16.06
2019-04-07T20:56:13.036Z,16.04
2019-04-07T20:58:52.513Z,16.04
2019-04-07T21:01:22.328Z,16.02
2019-04-07T21:03:56.060Z,16.07
2019-04-07T21:06:29.915Z,15.91
2019-04-07T21:09:02.751Z,15.92
2019-04-07T21:11:33.303Z,15.88
2019-04-07T21:14:04.612Z,15.86
2019-04-07T21:16:35.741Z,15.85
2019-04-07T21:19:08.382Z,15.80
2019-04-07T21:21:43.303Z,15.76
2019-04-07T21:24:14.454Z,15.87
2019-04-07T21:26:45.959Z,15.84
2019-04-07T21:29:18.110Z,15.76
2019-04-07T21:31:49.484Z,15.68
2019-04-07T21:34:23.960Z,15.62
2019-04-07T21:36:54.024Z,15.58
2019-04-07T21:39:30.462Z,15.58
2019-04-07T21:42:01.781Z,15.53
2019-04-07T21:44:33.751Z,15.48
2019-04-07T21:47:04.969Z,15.40
2019-04-07T21:49:39.500Z,15.38
2019-04-07T21:52:09.897Z,15.33
2019-04-07T21:54:41.578Z,15.27
2019-04-07T21:57:14.083Z,15.32
2019-04-07T21:59:44.666Z,15.22
2019-04-07T22:02:15.964Z,15.19
2019-04-07T22:04:46.389Z,15.17
2019-04-07T22:07:23.403Z,15.13
2019-04-07T22:09:57.304Z,15.14
2019-04-07T22:12:30.204Z,15.13
2019-04-07T22:14:57.809Z,15.04
2019-04-07T22:17:27.698Z,15.06
2019-04-07T22:19:57.272Z,14.98
2019-04-07T22:22:27.668Z,15.00
2019-04-07T22:24:58.020Z,14.98
2019-04-07T22:27:28.680Z,14.94
2019-04-07T22:29:59.926Z,14.93
2019-04-07T22:32:31.062Z,14.94
2019-04-07T22:35:04.781Z,14.83
2019-04-07T22:37:32.884Z,14.77
2019-04-07T22:40:03.394Z,14.72
2019-04-07T22:42:33.030Z,14.71
2019-04-07T22:45:02.491Z,14.71
2019-04-07T22:47:31.962Z,14.73
2019-04-07T22:50:05.147Z,14.71
2019-04-07T22:52:32.677Z,14.68
2019-04-07T22:55:06.754Z,14.65
2019-04-07T22:57:34.325Z,14.71
2019-04-07T23:00:06.442Z,14.66
2019-04-07T23:02:36.180Z,14.72
2019-04-07T23:05:07.201Z,14.55
2019-04-07T23:07:37.325Z,14.47
2019-04-07T23:10:06.543Z,14.54
2019-04-07T23:12:36.151Z,14.50
2019-04-07T23:15:07.358Z,14.51
2019-04-07T23:17:36.835Z,14.42
2019-04-07T23:20:07.705Z,14.54
2019-04-07T23:22:38.201Z,14.68
2019-04-07T23:25:09.849Z,14.66
2019-04-07T23:27:39.377Z,14.60
2019-04-07T23:30:11.034Z,14.39
2019-04-07T23:32:41.503Z,14.26
2019-04-07T23:35:12.446Z,14.20
2019-04-07T23:37:41.435Z,14.15
2019-04-07T23:40:11.480Z,14.19
2019-04-07T23:42:40.917Z,14.11
2019-04-07T23:45:10.863Z,14.22
2019-04-07T23:47:40.721Z,14.28
2019-04-07T23:50:11.162Z,14.19
2019-04-07T23:52:41.179Z,14.21
2019-04-07T23:55:10.909Z,14.11
2019-04-07T23:57:40.320Z,14.09
